X  Chiuso Dati meteorologici dell'aviazione (METAR)     LIML Milano Linate Airport
Temperatura
55°F Temperatura
52°F Punto di rugiada
88% Umidità



Vento
5 MPH
8 KM/O
2 M/S
4 KTS



350°
N
Condizioni attuali

Chiaro Chiaro
Pressione 1012.87 (hPa) - 29.91 (inHg)
Visibilità 6 (miglio) - 9.7 (km)
Aeroporto
Codice-Aeroporto LIML

Posizione: Milano Linate Airport
Distanza: 25 (mi)

Metar:
LIML 180220Z 35004KT CAVOK 13/11 Q1013 NOSIG

Ore: 18-05-2024 04:20 CEST